Fort Ann, New York
Current Conditions -  °F | °C
As of 4:10 AM on Monday 24 Nov 2014 (Local Time) from KGFL Reporting Station
Light Rain Light Rain  
Wind Chill: 39°   Ceiling: 2800
Heat Index: 39°   Visibility: 3mi
Dew Point: 37°   Wind: 0mph
Humidity: 93%   Direction: NA
Pressure: 29.79"   Gusts: NA
Location:  43.41°N, 73.49°W
Report Text: KGFL 240910Z AUTO 00000KT 3SM -RA BR OVC028 04/03 A2979 RMK AO2 P0003 T00390028
Loading
Personal Weather Stations






























Interactive Weather Map New forecast layout! Learn more

10-Day Weather Forecast

Advertisements
Track Severe Weather on mobile